sensor_id;sensor_type;location;lat;lon;timestamp;P1;durP1;ratioP1;P2;durP2;ratioP2
11791;SDS011;5953;52.372;9.918;2023-07-08T00:02:12;5.67;;;2.97;;
11791;SDS011;5953;52.372;9.918;2023-07-08T00:04:41;7.73;;;3.33;;
11791;SDS011;5953;52.372;9.918;2023-07-08T00:07:10;6.63;;;3.40;;
11791;SDS011;5953;52.372;9.918;2023-07-08T00:09:40;5.03;;;3.20;;
11791;SDS011;5953;52.372;9.918;2023-07-08T00:12:08;6.90;;;3.30;;
11791;SDS011;5953;52.372;9.918;2023-07-08T00:14:39;7.13;;;3.30;;
11791;SDS011;5953;52.372;9.918;2023-07-08T00:17:10;6.33;;;3.37;;
11791;SDS011;5953;52.372;9.918;2023-07-08T00:19:39;10.13;;;3.10;;
11791;SDS011;5953;52.372;9.918;2023-07-08T00:22:08;5.97;;;3.10;;
11791;SDS011;5953;52.372;9.918;2023-07-08T00:24:41;5.53;;;3.00;;
11791;SDS011;5953;52.372;9.918;2023-07-08T00:27:10;5.83;;;3.43;;
11791;SDS011;5953;52.372;9.918;2023-07-08T00:29:40;6.47;;;3.83;;
11791;SDS011;5953;52.372;9.918;2023-07-08T00:32:13;6.93;;;3.90;;
11791;SDS011;5953;52.372;9.918;2023-07-08T00:34:42;4.50;;;3.10;;
11791;SDS011;5953;52.372;9.918;2023-07-08T00:37:10;6.37;;;3.37;;
11791;SDS011;5953;52.372;9.918;2023-07-08T00:39:39;8.03;;;3.30;;
11791;SDS011;5953;52.372;9.918;2023-07-08T00:42:12;4.40;;;3.23;;
11791;SDS011;5953;52.372;9.918;2023-07-08T00:44:53;4.20;;;3.03;;
11791;SDS011;5953;52.372;9.918;2023-07-08T00:47:21;6.43;;;3.10;;
11791;SDS011;5953;52.372;9.918;2023-07-08T00:49:50;4.57;;;3.03;;
11791;SDS011;5953;52.372;9.918;2023-07-08T00:52:23;4.73;;;3.03;;
11791;SDS011;5953;52.372;9.918;2023-07-08T00:54:52;7.83;;;3.43;;
11791;SDS011;5953;52.372;9.918;2023-07-08T00:57:22;3.50;;;3.10;;
11791;SDS011;5953;52.372;9.918;2023-07-08T00:59:55;5.07;;;3.40;;
11791;SDS011;5953;52.372;9.918;2023-07-08T01:02:27;4.07;;;2.83;;
11791;SDS011;5953;52.372;9.918;2023-07-08T01:04:56;3.53;;;3.23;;
11791;SDS011;5953;52.372;9.918;2023-07-08T01:07:28;4.00;;;3.00;;
11791;SDS011;5953;52.372;9.918;2023-07-08T01:10:00;5.10;;;3.10;;
11791;SDS011;5953;52.372;9.918;2023-07-08T01:12:31;5.83;;;3.37;;
11791;SDS011;5953;52.372;9.918;2023-07-08T01:15:03;4.10;;;3.03;;
11791;SDS011;5953;52.372;9.918;2023-07-08T01:17:33;9.20;;;3.83;;
11791;SDS011;5953;52.372;9.918;2023-07-08T01:20:02;4.60;;;3.30;;
11791;SDS011;5953;52.372;9.918;2023-07-08T01:22:35;3.30;;;3.00;;
11791;SDS011;5953;52.372;9.918;2023-07-08T01:25:04;5.97;;;4.00;;
11791;SDS011;5953;52.372;9.918;2023-07-08T01:27:34;5.47;;;3.30;;
11791;SDS011;5953;52.372;9.918;2023-07-08T01:30:05;8.50;;;3.40;;
11791;SDS011;5953;52.372;9.918;2023-07-08T01:32:35;7.37;;;3.63;;
11791;SDS011;5953;52.372;9.918;2023-07-08T01:35:05;4.70;;;3.50;;
11791;SDS011;5953;52.372;9.918;2023-07-08T01:37:35;6.33;;;3.70;;
11791;SDS011;5953;52.372;9.918;2023-07-08T01:40:22;6.10;;;3.43;;
11791;SDS011;5953;52.372;9.918;2023-07-08T01:42:54;5.33;;;3.20;;
11791;SDS011;5953;52.372;9.918;2023-07-08T01:45:23;7.33;;;3.50;;
11791;SDS011;5953;52.372;9.918;2023-07-08T01:47:54;7.07;;;3.83;;
11791;SDS011;5953;52.372;9.918;2023-07-08T01:50:24;4.73;;;3.90;;
11791;SDS011;5953;52.372;9.918;2023-07-08T01:52:55;6.17;;;3.77;;
11791;SDS011;5953;52.372;9.918;2023-07-08T01:55:25;5.40;;;3.50;;
11791;SDS011;5953;52.372;9.918;2023-07-08T01:57:55;3.97;;;3.57;;
11791;SDS011;5953;52.372;9.918;2023-07-08T02:00:22;5.90;;;3.90;;
11791;SDS011;5953;52.372;9.918;2023-07-08T02:02:51;7.70;;;3.47;;
11791;SDS011;5953;52.372;9.918;2023-07-08T02:05:19;5.50;;;3.70;;
11791;SDS011;5953;52.372;9.918;2023-07-08T02:07:47;7.43;;;3.70;;
11791;SDS011;5953;52.372;9.918;2023-07-08T02:10:16;4.63;;;4.07;;
11791;SDS011;5953;52.372;9.918;2023-07-08T02:12:44;5.80;;;3.93;;
11791;SDS011;5953;52.372;9.918;2023-07-08T02:15:12;3.70;;;3.40;;
11791;SDS011;5953;52.372;9.918;2023-07-08T02:17:39;7.47;;;4.07;;
11791;SDS011;5953;52.372;9.918;2023-07-08T02:20:07;7.13;;;3.73;;
11791;SDS011;5953;52.372;9.918;2023-07-08T02:22:36;5.07;;;3.70;;
11791;SDS011;5953;52.372;9.918;2023-07-08T02:25:04;5.00;;;3.90;;
11791;SDS011;5953;52.372;9.918;2023-07-08T02:27:34;5.03;;;3.23;;
11791;SDS011;5953;52.372;9.918;2023-07-08T02:30:02;7.13;;;3.80;;
11791;SDS011;5953;52.372;9.918;2023-07-08T02:32:30;7.80;;;4.20;;
11791;SDS011;5953;52.372;9.918;2023-07-08T02:35:02;4.10;;;3.70;;
11791;SDS011;5953;52.372;9.918;2023-07-08T02:37:30;5.23;;;4.00;;
11791;SDS011;5953;52.372;9.918;2023-07-08T02:39:58;4.20;;;3.70;;
11791;SDS011;5953;52.372;9.918;2023-07-08T02:42:26;4.73;;;3.73;;
11791;SDS011;5953;52.372;9.918;2023-07-08T02:44:55;5.27;;;3.73;;
11791;SDS011;5953;52.372;9.918;2023-07-08T02:47:23;7.33;;;4.13;;
11791;SDS011;5953;52.372;9.918;2023-07-08T02:49:51;3.97;;;3.57;;
11791;SDS011;5953;52.372;9.918;2023-07-08T02:52:20;4.87;;;4.00;;
11791;SDS011;5953;52.372;9.918;2023-07-08T02:54:48;5.40;;;4.20;;
11791;SDS011;5953;52.372;9.918;2023-07-08T02:57:16;5.37;;;4.03;;
11791;SDS011;5953;52.372;9.918;2023-07-08T02:59:44;4.80;;;4.13;;
11791;SDS011;5953;52.372;9.918;2023-07-08T03:02:13;5.13;;;4.00;;
11791;SDS011;5953;52.372;9.918;2023-07-08T03:04:40;5.73;;;3.80;;
11791;SDS011;5953;52.372;9.918;2023-07-08T03:07:08;4.77;;;4.00;;
11791;SDS011;5953;52.372;9.918;2023-07-08T03:09:38;4.93;;;4.20;;
11791;SDS011;5953;52.372;9.918;2023-07-08T03:12:06;5.70;;;3.87;;
11791;SDS011;5953;52.372;9.918;2023-07-08T03:14:35;6.07;;;3.87;;
11791;SDS011;5953;52.372;9.918;2023-07-08T03:17:03;4.27;;;3.67;;
11791;SDS011;5953;52.372;9.918;2023-07-08T03:19:33;4.70;;;4.23;;
11791;SDS011;5953;52.372;9.918;2023-07-08T03:22:01;4.90;;;4.40;;
11791;SDS011;5953;52.372;9.918;2023-07-08T03:24:31;5.90;;;4.30;;
11791;SDS011;5953;52.372;9.918;2023-07-08T03:26:59;4.07;;;3.60;;
11791;SDS011;5953;52.372;9.918;2023-07-08T03:29:31;6.10;;;4.10;;
11791;SDS011;5953;52.372;9.918;2023-07-08T03:31:59;5.10;;;4.60;;
11791;SDS011;5953;52.372;9.918;2023-07-08T03:34:27;5.53;;;4.70;;
11791;SDS011;5953;52.372;9.918;2023-07-08T03:36:56;6.83;;;4.30;;
11791;SDS011;5953;52.372;9.918;2023-07-08T03:39:24;5.50;;;4.93;;
11791;SDS011;5953;52.372;9.918;2023-07-08T03:41:52;4.80;;;4.40;;
11791;SDS011;5953;52.372;9.918;2023-07-08T03:44:20;7.90;;;4.47;;
11791;SDS011;5953;52.372;9.918;2023-07-08T03:46:48;6.23;;;5.00;;
11791;SDS011;5953;52.372;9.918;2023-07-08T03:49:17;5.03;;;4.37;;
11791;SDS011;5953;52.372;9.918;2023-07-08T03:51:48;5.17;;;4.67;;
11791;SDS011;5953;52.372;9.918;2023-07-08T03:54:19;6.90;;;5.50;;
11791;SDS011;5953;52.372;9.918;2023-07-08T03:56:47;7.20;;;4.70;;
11791;SDS011;5953;52.372;9.918;2023-07-08T03:59:15;6.47;;;4.77;;
11791;SDS011;5953;52.372;9.918;2023-07-08T04:01:43;6.63;;;4.90;;
11791;SDS011;5953;52.372;9.918;2023-07-08T04:04:12;9.43;;;5.20;;
11791;SDS011;5953;52.372;9.918;2023-07-08T04:06:41;5.40;;;4.50;;
11791;SDS011;5953;52.372;9.918;2023-07-08T04:09:09;6.57;;;4.60;;
11791;SDS011;5953;52.372;9.918;2023-07-08T04:11:38;4.87;;;4.47;;
11791;SDS011;5953;52.372;9.918;2023-07-08T04:14:07;7.60;;;5.00;;
11791;SDS011;5953;52.372;9.918;2023-07-08T04:16:47;6.23;;;4.83;;
11791;SDS011;5953;52.372;9.918;2023-07-08T04:19:17;5.27;;;4.80;;
11791;SDS011;5953;52.372;9.918;2023-07-08T04:21:45;5.50;;;5.00;;
11791;SDS011;5953;52.372;9.918;2023-07-08T04:24:14;4.70;;;4.30;;
11791;SDS011;5953;52.372;9.918;2023-07-08T04:26:45;5.20;;;4.70;;
11791;SDS011;5953;52.372;9.918;2023-07-08T04:29:14;6.83;;;5.27;;
11791;SDS011;5953;52.372;9.918;2023-07-08T04:31:43;8.97;;;5.30;;
11791;SDS011;5953;52.372;9.918;2023-07-08T04:34:11;5.23;;;4.73;;
11791;SDS011;5953;52.372;9.918;2023-07-08T04:36:40;7.83;;;5.00;;
11791;SDS011;5953;52.372;9.918;2023-07-08T04:39:08;5.40;;;4.80;;
11791;SDS011;5953;52.372;9.918;2023-07-08T04:41:37;5.43;;;4.93;;
11791;SDS011;5953;52.372;9.918;2023-07-08T04:44:09;7.23;;;5.30;;
11791;SDS011;5953;52.372;9.918;2023-07-08T04:46:38;5.80;;;5.30;;
11791;SDS011;5953;52.372;9.918;2023-07-08T04:49:08;6.90;;;5.07;;
11791;SDS011;5953;52.372;9.918;2023-07-08T04:51:37;5.83;;;5.23;;
11791;SDS011;5953;52.372;9.918;2023-07-08T04:54:05;5.33;;;4.83;;
11791;SDS011;5953;52.372;9.918;2023-07-08T04:56:35;5.57;;;5.00;;
11791;SDS011;5953;52.372;9.918;2023-07-08T04:59:04;6.20;;;4.97;;
11791;SDS011;5953;52.372;9.918;2023-07-08T05:01:33;4.87;;;4.37;;
11791;SDS011;5953;52.372;9.918;2023-07-08T05:04:02;7.53;;;4.83;;
11791;SDS011;5953;52.372;9.918;2023-07-08T05:06:31;4.73;;;4.23;;
11791;SDS011;5953;52.372;9.918;2023-07-08T05:09:00;8.90;;;4.90;;
11791;SDS011;5953;52.372;9.918;2023-07-08T05:11:28;6.03;;;4.70;;
11791;SDS011;5953;52.372;9.918;2023-07-08T05:13:57;7.40;;;5.30;;
11791;SDS011;5953;52.372;9.918;2023-07-08T05:16:25;5.93;;;5.30;;
11791;SDS011;5953;52.372;9.918;2023-07-08T05:18:54;7.00;;;4.83;;
11791;SDS011;5953;52.372;9.918;2023-07-08T05:21:22;6.37;;;5.43;;
11791;SDS011;5953;52.372;9.918;2023-07-08T05:23:50;5.03;;;4.50;;
11791;SDS011;5953;52.372;9.918;2023-07-08T05:26:19;5.97;;;5.03;;
11791;SDS011;5953;52.372;9.918;2023-07-08T05:28:48;5.60;;;4.97;;
11791;SDS011;5953;52.372;9.918;2023-07-08T05:31:15;6.97;;;4.77;;
11791;SDS011;5953;52.372;9.918;2023-07-08T05:33:43;8.70;;;4.77;;
11791;SDS011;5953;52.372;9.918;2023-07-08T05:36:12;9.60;;;4.90;;
11791;SDS011;5953;52.372;9.918;2023-07-08T05:38:40;5.00;;;4.10;;
11791;SDS011;5953;52.372;9.918;2023-07-08T05:41:08;5.17;;;4.67;;
11791;SDS011;5953;52.372;9.918;2023-07-08T05:43:36;5.13;;;4.30;;
11791;SDS011;5953;52.372;9.918;2023-07-08T05:46:04;5.23;;;4.73;;
11791;SDS011;5953;52.372;9.918;2023-07-08T05:48:38;5.60;;;5.03;;
11791;SDS011;5953;52.372;9.918;2023-07-08T05:51:06;5.93;;;4.93;;
11791;SDS011;5953;52.372;9.918;2023-07-08T05:53:35;5.13;;;4.63;;
11791;SDS011;5953;52.372;9.918;2023-07-08T05:56:03;5.33;;;4.67;;
11791;SDS011;5953;52.372;9.918;2023-07-08T05:58:31;4.97;;;4.53;;
11791;SDS011;5953;52.372;9.918;2023-07-08T06:00:59;5.47;;;4.93;;
11791;SDS011;5953;52.372;9.918;2023-07-08T06:03:28;5.43;;;4.37;;
11791;SDS011;5953;52.372;9.918;2023-07-08T06:05:56;5.50;;;4.50;;
11791;SDS011;5953;52.372;9.918;2023-07-08T06:08:24;5.83;;;4.90;;
11791;SDS011;5953;52.372;9.918;2023-07-08T06:10:53;6.50;;;5.33;;
11791;SDS011;5953;52.372;9.918;2023-07-08T06:13:21;4.97;;;4.47;;
11791;SDS011;5953;52.372;9.918;2023-07-08T06:15:48;7.43;;;4.50;;
11791;SDS011;5953;52.372;9.918;2023-07-08T06:18:16;9.47;;;4.53;;
11791;SDS011;5953;52.372;9.918;2023-07-08T06:20:50;6.13;;;4.97;;
11791;SDS011;5953;52.372;9.918;2023-07-08T06:23:18;7.35;;;4.90;;
11791;SDS011;5953;52.372;9.918;2023-07-08T06:25:47;6.80;;;4.83;;
11791;SDS011;5953;52.372;9.918;2023-07-08T06:28:16;5.03;;;4.53;;
11791;SDS011;5953;52.372;9.918;2023-07-08T06:30:44;6.60;;;4.63;;
11791;SDS011;5953;52.372;9.918;2023-07-08T06:33:12;6.63;;;4.85;;
11791;SDS011;5953;52.372;9.918;2023-07-08T06:35:40;5.13;;;4.65;;
11791;SDS011;5953;52.372;9.918;2023-07-08T06:38:08;4.80;;;4.40;;
11791;SDS011;5953;52.372;9.918;2023-07-08T06:40:37;5.53;;;5.00;;
11791;SDS011;5953;52.372;9.918;2023-07-08T06:43:05;4.78;;;4.25;;
11791;SDS011;5953;52.372;9.918;2023-07-08T06:45:34;5.43;;;4.80;;
11791;SDS011;5953;52.372;9.918;2023-07-08T06:48:02;5.90;;;5.05;;
11791;SDS011;5953;52.372;9.918;2023-07-08T06:50:30;5.47;;;4.97;;
11791;SDS011;5953;52.372;9.918;2023-07-08T06:52:58;4.88;;;4.47;;
11791;SDS011;5953;52.372;9.918;2023-07-08T06:55:26;6.25;;;4.85;;
11791;SDS011;5953;52.372;9.918;2023-07-08T06:57:56;5.05;;;4.65;;
11791;SDS011;5953;52.372;9.918;2023-07-08T07:00:24;6.55;;;5.13;;
11791;SDS011;5953;52.372;9.918;2023-07-08T07:02:53;4.93;;;4.47;;
11791;SDS011;5953;52.372;9.918;2023-07-08T07:05:21;5.00;;;4.60;;
11791;SDS011;5953;52.372;9.918;2023-07-08T07:07:49;5.93;;;4.50;;
11791;SDS011;5953;52.372;9.918;2023-07-08T07:10:18;5.15;;;4.57;;
11791;SDS011;5953;52.372;9.918;2023-07-08T07:12:46;4.88;;;4.18;;
11791;SDS011;5953;52.372;9.918;2023-07-08T07:15:14;5.57;;;4.22;;
11791;SDS011;5953;52.372;9.918;2023-07-08T07:17:42;4.72;;;3.90;;
11791;SDS011;5953;52.372;9.918;2023-07-08T07:20:12;4.55;;;4.15;;
11791;SDS011;5953;52.372;9.918;2023-07-08T07:22:40;4.45;;;4.10;;
11791;SDS011;5953;52.372;9.918;2023-07-08T07:25:08;4.85;;;4.32;;
11791;SDS011;5953;52.372;9.918;2023-07-08T07:27:36;5.53;;;4.38;;
11791;SDS011;5953;52.372;9.918;2023-07-08T07:30:04;5.18;;;4.05;;
11791;SDS011;5953;52.372;9.918;2023-07-08T07:32:33;6.70;;;4.20;;
11791;SDS011;5953;52.372;9.918;2023-07-08T07:35:01;5.00;;;4.50;;
11791;SDS011;5953;52.372;9.918;2023-07-08T07:37:31;5.18;;;4.40;;
11791;SDS011;5953;52.372;9.918;2023-07-08T07:39:58;5.55;;;4.65;;
11791;SDS011;5953;52.372;9.918;2023-07-08T07:42:27;4.70;;;4.30;;
11791;SDS011;5953;52.372;9.918;2023-07-08T07:44:55;5.57;;;4.20;;
11791;SDS011;5953;52.372;9.918;2023-07-08T07:47:23;6.53;;;5.10;;
11791;SDS011;5953;52.372;9.918;2023-07-08T07:49:53;5.35;;;4.75;;
11791;SDS011;5953;52.372;9.918;2023-07-08T07:52:21;4.65;;;4.25;;
11791;SDS011;5953;52.372;9.918;2023-07-08T07:54:52;6.03;;;4.10;;
11791;SDS011;5953;52.372;9.918;2023-07-08T07:57:20;6.40;;;4.63;;
11791;SDS011;5953;52.372;9.918;2023-07-08T07:59:48;6.18;;;4.20;;
11791;SDS011;5953;52.372;9.918;2023-07-08T08:02:16;4.65;;;4.25;;
11791;SDS011;5953;52.372;9.918;2023-07-08T08:04:45;53.72;;;10.32;;
11791;SDS011;5953;52.372;9.918;2023-07-08T08:07:12;7.05;;;4.13;;
11791;SDS011;5953;52.372;9.918;2023-07-08T08:09:40;4.82;;;4.30;;
11791;SDS011;5953;52.372;9.918;2023-07-08T08:12:10;4.57;;;4.10;;
11791;SDS011;5953;52.372;9.918;2023-07-08T08:14:38;5.18;;;4.20;;
11791;SDS011;5953;52.372;9.918;2023-07-08T08:17:06;5.32;;;4.28;;
11791;SDS011;5953;52.372;9.918;2023-07-08T08:19:34;5.05;;;4.55;;
11791;SDS011;5953;52.372;9.918;2023-07-08T08:22:03;4.93;;;4.43;;
11791;SDS011;5953;52.372;9.918;2023-07-08T08:24:31;6.65;;;3.95;;
11791;SDS011;5953;52.372;9.918;2023-07-08T08:26:58;4.43;;;4.03;;
11791;SDS011;5953;52.372;9.918;2023-07-08T08:29:28;4.88;;;4.05;;
11791;SDS011;5953;52.372;9.918;2023-07-08T08:31:55;4.72;;;4.28;;
11791;SDS011;5953;52.372;9.918;2023-07-08T08:34:23;5.28;;;4.40;;
11791;SDS011;5953;52.372;9.918;2023-07-08T08:36:51;4.25;;;3.88;;
11791;SDS011;5953;52.372;9.918;2023-07-08T08:39:21;6.32;;;4.10;;
11791;SDS011;5953;52.372;9.918;2023-07-08T08:41:50;5.18;;;4.20;;
11791;SDS011;5953;52.372;9.918;2023-07-08T08:44:22;5.03;;;4.22;;
11791;SDS011;5953;52.372;9.918;2023-07-08T08:46:58;4.65;;;4.25;;
11791;SDS011;5953;52.372;9.918;2023-07-08T08:49:34;4.53;;;4.13;;
11791;SDS011;5953;52.372;9.918;2023-07-08T08:52:06;8.63;;;4.40;;
11791;SDS011;5953;52.372;9.918;2023-07-08T08:54:34;7.68;;;4.22;;
11791;SDS011;5953;52.372;9.918;2023-07-08T08:57:05;6.68;;;4.10;;
11791;SDS011;5953;52.372;9.918;2023-07-08T08:59:42;5.22;;;4.30;;
11791;SDS011;5953;52.372;9.918;2023-07-08T09:02:30;4.40;;;3.97;;
11791;SDS011;5953;52.372;9.918;2023-07-08T09:05:03;5.80;;;4.10;;
11791;SDS011;5953;52.372;9.918;2023-07-08T09:07:36;4.55;;;3.67;;
11791;SDS011;5953;52.372;9.918;2023-07-08T09:10:11;4.53;;;3.80;;
11791;SDS011;5953;52.372;9.918;2023-07-08T09:12:46;5.00;;;3.90;;
11791;SDS011;5953;52.372;9.918;2023-07-08T09:15:18;6.43;;;3.97;;
11791;SDS011;5953;52.372;9.918;2023-07-08T09:17:47;6.85;;;4.00;;
11791;SDS011;5953;52.372;9.918;2023-07-08T09:20:21;5.50;;;4.45;;
11791;SDS011;5953;52.372;9.918;2023-07-08T09:22:51;6.45;;;3.72;;
11791;SDS011;5953;52.372;9.918;2023-07-08T09:25:26;7.03;;;4.18;;
11791;SDS011;5953;52.372;9.918;2023-07-08T09:27:57;4.68;;;4.05;;
11791;SDS011;5953;52.372;9.918;2023-07-08T09:30:25;5.10;;;3.90;;
11791;SDS011;5953;52.372;9.918;2023-07-08T09:32:56;4.75;;;4.15;;
11791;SDS011;5953;52.372;9.918;2023-07-08T09:35:26;5.88;;;4.13;;
11791;SDS011;5953;52.372;9.918;2023-07-08T09:37:55;5.30;;;4.80;;
11791;SDS011;5953;52.372;9.918;2023-07-08T09:40:28;5.03;;;3.92;;
11791;SDS011;5953;52.372;9.918;2023-07-08T09:42:58;7.38;;;4.50;;
11791;SDS011;5953;52.372;9.918;2023-07-08T09:45:29;4.72;;;3.88;;
11791;SDS011;5953;52.372;9.918;2023-07-08T09:48:16;4.80;;;3.72;;
11791;SDS011;5953;52.372;9.918;2023-07-08T09:50:47;7.20;;;4.00;;
11791;SDS011;5953;52.372;9.918;2023-07-08T09:53:16;4.63;;;4.15;;
11791;SDS011;5953;52.372;9.918;2023-07-08T09:55:44;5.95;;;4.15;;
11791;SDS011;5953;52.372;9.918;2023-07-08T09:58:13;4.68;;;4.20;;
11791;SDS011;5953;52.372;9.918;2023-07-08T10:00:45;4.78;;;4.32;;
11791;SDS011;5953;52.372;9.918;2023-07-08T10:03:22;5.40;;;4.55;;
11791;SDS011;5953;52.372;9.918;2023-07-08T10:05:53;4.50;;;3.95;;
11791;SDS011;5953;52.372;9.918;2023-07-08T10:08:25;5.45;;;3.85;;
11791;SDS011;5953;52.372;9.918;2023-07-08T10:10:58;4.07;;;3.67;;
11791;SDS011;5953;52.372;9.918;2023-07-08T10:13:32;4.38;;;3.97;;
11791;SDS011;5953;52.372;9.918;2023-07-08T10:16:09;5.60;;;3.95;;
11791;SDS011;5953;52.372;9.918;2023-07-08T10:18:42;4.80;;;3.55;;
11791;SDS011;5953;52.372;9.918;2023-07-08T10:21:12;4.63;;;3.45;;
11791;SDS011;5953;52.372;9.918;2023-07-08T10:23:47;3.90;;;3.60;;
11791;SDS011;5953;52.372;9.918;2023-07-08T10:26:23;4.68;;;4.28;;
11791;SDS011;5953;52.372;9.918;2023-07-08T10:28:58;5.22;;;4.15;;
11791;SDS011;5953;52.372;9.918;2023-07-08T10:31:41;11.23;;;4.10;;
11791;SDS011;5953;52.372;9.918;2023-07-08T10:34:25;5.82;;;4.28;;
11791;SDS011;5953;52.372;9.918;2023-07-08T10:37:02;5.10;;;4.07;;
11791;SDS011;5953;52.372;9.918;2023-07-08T10:39:39;3.70;;;3.40;;
11791;SDS011;5953;52.372;9.918;2023-07-08T10:42:19;7.72;;;4.35;;
11791;SDS011;5953;52.372;9.918;2023-07-08T10:45:06;7.30;;;3.80;;
11791;SDS011;5953;52.372;9.918;2023-07-08T10:47:42;5.05;;;3.97;;
11791;SDS011;5953;52.372;9.918;2023-07-08T10:50:26;5.18;;;3.88;;
11791;SDS011;5953;52.372;9.918;2023-07-08T10:53:09;4.70;;;3.65;;
11791;SDS011;5953;52.372;9.918;2023-07-08T10:55:50;4.63;;;4.22;;
11791;SDS011;5953;52.372;9.918;2023-07-08T10:58:27;5.47;;;3.83;;
11791;SDS011;5953;52.372;9.918;2023-07-08T11:01:08;6.85;;;3.70;;
11791;SDS011;5953;52.372;9.918;2023-07-08T11:03:49;4.78;;;3.65;;
11791;SDS011;5953;52.372;9.918;2023-07-08T11:06:44;5.32;;;3.80;;
11791;SDS011;5953;52.372;9.918;2023-07-08T11:09:16;4.82;;;3.40;;
11791;SDS011;5953;52.372;9.918;2023-07-08T11:11:48;4.63;;;3.88;;
11791;SDS011;5953;52.372;9.918;2023-07-08T11:14:22;4.10;;;3.70;;
11791;SDS011;5953;52.372;9.918;2023-07-08T11:16:55;5.45;;;3.90;;
11791;SDS011;5953;52.372;9.918;2023-07-08T11:19:32;4.65;;;3.95;;
11791;SDS011;5953;52.372;9.918;2023-07-08T11:22:06;4.07;;;3.70;;
11791;SDS011;5953;52.372;9.918;2023-07-08T11:24:37;4.38;;;3.97;;
11791;SDS011;5953;52.372;9.918;2023-07-08T11:27:11;7.22;;;4.15;;
11791;SDS011;5953;52.372;9.918;2023-07-08T11:29:46;5.25;;;3.85;;
11791;SDS011;5953;52.372;9.918;2023-07-08T11:32:19;4.45;;;4.05;;
11791;SDS011;5953;52.372;9.918;2023-07-08T11:34:48;4.40;;;3.95;;
11791;SDS011;5953;52.372;9.918;2023-07-08T11:37:20;5.28;;;4.28;;
11791;SDS011;5953;52.372;9.918;2023-07-08T11:39:53;4.53;;;4.13;;
11791;SDS011;5953;52.372;9.918;2023-07-08T11:42:25;6.43;;;3.90;;
11791;SDS011;5953;52.372;9.918;2023-07-08T11:45:02;3.78;;;3.40;;
11791;SDS011;5953;52.372;9.918;2023-07-08T11:47:37;4.32;;;3.90;;
11791;SDS011;5953;52.372;9.918;2023-07-08T11:50:10;4.50;;;4.10;;
11791;SDS011;5953;52.372;9.918;2023-07-08T11:52:51;5.30;;;4.05;;
11791;SDS011;5953;52.372;9.918;2023-07-08T11:55:21;6.05;;;3.75;;
11791;SDS011;5953;52.372;9.918;2023-07-08T11:57:56;6.80;;;4.63;;
11791;SDS011;5953;52.372;9.918;2023-07-08T12:00:30;4.35;;;3.95;;
11791;SDS011;5953;52.372;9.918;2023-07-08T12:03:03;5.43;;;4.28;;
11791;SDS011;5953;52.372;9.918;2023-07-08T12:05:44;6.70;;;4.60;;
11791;SDS011;5953;52.372;9.918;2023-07-08T12:08:14;4.25;;;3.80;;
11791;SDS011;5953;52.372;9.918;2023-07-08T12:10:46;4.82;;;4.18;;
11791;SDS011;5953;52.372;9.918;2023-07-08T12:13:17;5.30;;;4.28;;
11791;SDS011;5953;52.372;9.918;2023-07-08T12:15:48;5.32;;;4.82;;
11791;SDS011;5953;52.372;9.918;2023-07-08T12:18:16;5.65;;;5.03;;
11791;SDS011;5953;52.372;9.918;2023-07-08T12:20:49;5.47;;;4.13;;
11791;SDS011;5953;52.372;9.918;2023-07-08T12:23:22;6.03;;;5.13;;
11791;SDS011;5953;52.372;9.918;2023-07-08T12:25:51;5.82;;;5.15;;
11791;SDS011;5953;52.372;9.918;2023-07-08T12:28:20;5.28;;;4.78;;
11791;SDS011;5953;52.372;9.918;2023-07-08T12:30:48;5.50;;;5.00;;
11791;SDS011;5953;52.372;9.918;2023-07-08T12:33:19;4.68;;;3.83;;
11791;SDS011;5953;52.372;9.918;2023-07-08T12:35:53;5.68;;;5.07;;
11791;SDS011;5953;52.372;9.918;2023-07-08T12:38:25;6.68;;;4.93;;
11791;SDS011;5953;52.372;9.918;2023-07-08T12:40:55;4.97;;;4.47;;
11791;SDS011;5953;52.372;9.918;2023-07-08T12:43:24;4.53;;;4.10;;
11791;SDS011;5953;52.372;9.918;2023-07-08T12:45:52;5.10;;;4.50;;
11791;SDS011;5953;52.372;9.918;2023-07-08T12:48:20;5.22;;;3.92;;
11791;SDS011;5953;52.372;9.918;2023-07-08T12:50:48;4.50;;;4.03;;
11791;SDS011;5953;52.372;9.918;2023-07-08T12:53:16;6.13;;;4.43;;
11791;SDS011;5953;52.372;9.918;2023-07-08T12:55:48;5.95;;;4.25;;
11791;SDS011;5953;52.372;9.918;2023-07-08T12:58:22;6.25;;;4.47;;
11791;SDS011;5953;52.372;9.918;2023-07-08T13:00:53;5.45;;;4.40;;
11791;SDS011;5953;52.372;9.918;2023-07-08T13:03:23;5.75;;;5.20;;
11791;SDS011;5953;52.372;9.918;2023-07-08T13:05:54;5.50;;;4.95;;
11791;SDS011;5953;52.372;9.918;2023-07-08T13:08:25;6.57;;;5.05;;
11791;SDS011;5953;52.372;9.918;2023-07-08T13:10:58;5.57;;;4.85;;
11791;SDS011;5953;52.372;9.918;2023-07-08T13:13:28;6.88;;;5.00;;
11791;SDS011;5953;52.372;9.918;2023-07-08T13:15:58;6.40;;;5.03;;
11791;SDS011;5953;52.372;9.918;2023-07-08T13:18:29;4.72;;;4.32;;
11791;SDS011;5953;52.372;9.918;2023-07-08T13:20:59;5.75;;;5.20;;
11791;SDS011;5953;52.372;9.918;2023-07-08T13:23:29;6.00;;;5.40;;
11791;SDS011;5953;52.372;9.918;2023-07-08T13:25:59;5.38;;;4.75;;
11791;SDS011;5953;52.372;9.918;2023-07-08T13:28:27;7.10;;;5.47;;
11791;SDS011;5953;52.372;9.918;2023-07-08T13:30:58;6.47;;;5.32;;
11791;SDS011;5953;52.372;9.918;2023-07-08T13:33:29;5.78;;;5.18;;
11791;SDS011;5953;52.372;9.918;2023-07-08T13:36:00;6.63;;;4.97;;
11791;SDS011;5953;52.372;9.918;2023-07-08T13:38:31;5.97;;;5.35;;
11791;SDS011;5953;52.372;9.918;2023-07-08T13:41:02;6.32;;;5.10;;
11791;SDS011;5953;52.372;9.918;2023-07-08T13:43:32;5.60;;;4.78;;
11791;SDS011;5953;52.372;9.918;2023-07-08T13:46:02;5.43;;;4.57;;
11791;SDS011;5953;52.372;9.918;2023-07-08T13:48:33;9.05;;;5.68;;
11791;SDS011;5953;52.372;9.918;2023-07-08T13:51:06;5.68;;;5.10;;
11791;SDS011;5953;52.372;9.918;2023-07-08T13:53:41;6.32;;;5.30;;
11791;SDS011;5953;52.372;9.918;2023-07-08T13:56:14;6.28;;;4.95;;
11791;SDS011;5953;52.372;9.918;2023-07-08T13:58:44;5.30;;;4.80;;
11791;SDS011;5953;52.372;9.918;2023-07-08T14:01:16;5.07;;;4.57;;
11791;SDS011;5953;52.372;9.918;2023-07-08T14:03:48;5.28;;;4.78;;
11791;SDS011;5953;52.372;9.918;2023-07-08T14:06:19;5.88;;;4.63;;
11791;SDS011;5953;52.372;9.918;2023-07-08T14:08:48;5.53;;;5.03;;
11791;SDS011;5953;52.372;9.918;2023-07-08T14:11:17;5.45;;;4.78;;
11791;SDS011;5953;52.372;9.918;2023-07-08T14:13:45;5.80;;;5.30;;
11791;SDS011;5953;52.372;9.918;2023-07-08T14:16:16;5.70;;;5.20;;
11791;SDS011;5953;52.372;9.918;2023-07-08T14:18:51;7.10;;;4.45;;
11791;SDS011;5953;52.372;9.918;2023-07-08T14:21:20;5.38;;;4.88;;
11791;SDS011;5953;52.372;9.918;2023-07-08T14:23:47;7.53;;;5.50;;
11791;SDS011;5953;52.372;9.918;2023-07-08T14:26:17;5.85;;;5.07;;
11791;SDS011;5953;52.372;9.918;2023-07-08T14:28:45;5.60;;;4.95;;
11791;SDS011;5953;52.372;9.918;2023-07-08T14:31:14;6.68;;;4.72;;
11791;SDS011;5953;52.372;9.918;2023-07-08T14:33:44;5.43;;;4.93;;
11791;SDS011;5953;52.372;9.918;2023-07-08T14:36:12;5.85;;;4.90;;
11791;SDS011;5953;52.372;9.918;2023-07-08T14:38:41;5.50;;;4.95;;
11791;SDS011;5953;52.372;9.918;2023-07-08T14:41:09;5.70;;;4.90;;
11791;SDS011;5953;52.372;9.918;2023-07-08T14:43:38;4.95;;;4.53;;
11791;SDS011;5953;52.372;9.918;2023-07-08T14:46:08;6.03;;;5.13;;
11791;SDS011;5953;52.372;9.918;2023-07-08T14:48:37;5.25;;;4.75;;
11791;SDS011;5953;52.372;9.918;2023-07-08T14:51:04;6.10;;;5.13;;
11791;SDS011;5953;52.372;9.918;2023-07-08T14:53:32;6.45;;;5.22;;
11791;SDS011;5953;52.372;9.918;2023-07-08T14:56:00;5.10;;;4.60;;
11791;SDS011;5953;52.372;9.918;2023-07-08T14:58:37;6.47;;;5.28;;
11791;SDS011;5953;52.372;9.918;2023-07-08T15:01:12;5.97;;;5.47;;
11791;SDS011;5953;52.372;9.918;2023-07-08T15:03:45;7.72;;;4.78;;
11791;SDS011;5953;52.372;9.918;2023-07-08T15:06:13;5.53;;;5.03;;
11791;SDS011;5953;52.372;9.918;2023-07-08T15:08:41;7.32;;;4.63;;
11791;SDS011;5953;52.372;9.918;2023-07-08T15:11:09;6.10;;;5.07;;
11791;SDS011;5953;52.372;9.918;2023-07-08T15:13:39;6.22;;;5.07;;
11791;SDS011;5953;52.372;9.918;2023-07-08T15:16:12;6.00;;;4.53;;
11791;SDS011;5953;52.372;9.918;2023-07-08T15:18:41;5.30;;;4.80;;
11791;SDS011;5953;52.372;9.918;2023-07-08T15:21:09;5.75;;;5.15;;